Autoridad de Aeronautica Civil de Panamá


taf




 

AERÓDROMOS

 

PRONOSTICO DE AERÓDROMO
TAF

AEROPUERTO INTL. DE TOCUMEN:


TAF MPTO 022300Z 0300/0406 35010KT 9999 FEW018 TEMPO 0306/0309 VRB02KT TEMPO 0310/0314 03006KT SCT017=
AEROPUERTO MARCOS A. GELABERT:


TAF AMD MPMG 030300Z 0300/0312 CNL=
AEROPUERTO ENRIQUE MALEK:


TAF AMD MP 030100Z 0300/0312 CNL=
AEROPUERTO PANAMA PACIFICO:


TAF AMD MPPA 030300Z 0300/0312 CNL=
AEROPUERTO SCARLETT MARTÍNEZ:


TAF AMD MPSM 022100Z 0218/0324 CNL=


Contador: 5248